createdAt,value
2018-05-03T00:00:59.181Z,10.20
2018-05-03T00:03:27.916Z,10.10
2018-05-03T00:05:55.851Z,10.10
2018-05-03T00:08:26.036Z,10.10
2018-05-03T00:10:54.545Z,10.00
2018-05-03T00:13:22.536Z,10.00
2018-05-03T00:15:50.604Z,9.90
2018-05-03T00:18:18.780Z,9.90
2018-05-03T00:20:47.930Z,9.90
2018-05-03T00:23:16.551Z,9.80
2018-05-03T00:25:44.564Z,9.80
2018-05-03T00:28:12.591Z,9.80
2018-05-03T00:30:40.588Z,9.90
2018-05-03T00:33:08.575Z,9.90
2018-05-03T00:35:36.604Z,9.90
2018-05-03T00:38:04.611Z,9.80
2018-05-03T00:40:32.640Z,9.80
2018-05-03T00:43:01.101Z,9.80
2018-05-03T00:45:29.922Z,9.90
2018-05-03T00:47:57.879Z,9.80
2018-05-03T00:50:25.884Z,9.90
2018-05-03T00:52:53.878Z,9.90
2018-05-03T00:55:22.638Z,9.90
2018-05-03T00:57:50.681Z,10.00
2018-05-03T01:00:18.708Z,10.00
2018-05-03T01:02:47.448Z,9.90
2018-05-03T01:05:16.088Z,9.90
2018-05-03T01:07:44.050Z,10.00
2018-05-03T01:10:12.059Z,9.90
2018-05-03T01:12:40.052Z,9.90
2018-05-03T01:15:07.994Z,9.90
2018-05-03T01:17:36.103Z,9.90
2018-05-03T01:20:04.099Z,9.90
2018-05-03T01:22:32.110Z,9.90
2018-05-03T01:25:00.832Z,9.80
2018-05-03T01:27:29.746Z,9.80
2018-05-03T01:29:58.036Z,9.70
2018-05-03T01:32:26.794Z,9.70
2018-05-03T01:35:06.446Z,9.60
2018-05-03T01:37:34.446Z,9.60
2018-05-03T01:40:03.207Z,9.50
2018-05-03T01:42:31.171Z,9.50
2018-05-03T01:44:59.180Z,9.50
2018-05-03T01:47:27.191Z,9.50
2018-05-03T01:49:55.186Z,9.50
2018-05-03T01:52:23.131Z,9.40
2018-05-03T01:54:51.179Z,9.30
2018-05-03T01:57:19.120Z,9.30
2018-05-03T01:59:47.199Z,9.30
2018-05-03T02:02:15.296Z,9.30
2018-05-03T02:04:43.273Z,9.20
2018-05-03T02:07:11.262Z,9.20
2018-05-03T02:09:39.157Z,9.20
2018-05-03T02:12:07.881Z,9.10
2018-05-03T02:14:35.924Z,9.10
2018-05-03T02:17:04.111Z,9.10
2018-05-03T02:19:32.036Z,9.10
2018-05-03T02:22:00.894Z,9.00
2018-05-03T02:24:28.857Z,9.00
2018-05-03T02:26:56.749Z,9.00
2018-05-03T02:29:24.668Z,9.00
2018-05-03T02:31:54.046Z,9.10
2018-05-03T02:34:22.774Z,9.20
2018-05-03T02:36:50.734Z,9.20
2018-05-03T02:39:18.687Z,9.30
2018-05-03T02:44:20.772Z,9.40
2018-05-03T02:46:49.697Z,9.50
2018-05-03T02:49:17.657Z,9.50
2018-05-03T02:51:45.646Z,9.60
2018-05-03T02:54:14.531Z,9.70
2018-05-03T02:56:43.347Z,9.80
2018-05-03T02:59:22.952Z,9.90
2018-05-03T03:01:57.152Z,10.00
2018-05-03T03:04:43.036Z,10.00
2018-05-03T03:07:33.174Z,10.10
2018-05-03T03:10:23.411Z,10.10
2018-05-03T03:13:34.655Z,10.20
2018-05-03T03:16:22.685Z,10.30
2018-05-03T03:22:03.636Z,10.60
2018-05-03T03:24:50.719Z,10.60
2018-05-03T03:30:40.626Z,10.80
2018-05-03T03:33:19.981Z,10.80
2018-05-03T03:36:00.092Z,10.90
2018-05-03T03:38:40.217Z,10.90
2018-05-03T03:41:19.589Z,10.90
2018-05-03T03:43:59.188Z,10.90
2018-05-03T03:46:26.756Z,10.90
2018-05-03T03:48:54.350Z,11.00
2018-05-03T03:51:22.654Z,11.00
2018-05-03T03:53:50.184Z,11.00
2018-05-03T03:56:17.695Z,11.00
2018-05-03T03:58:45.243Z,11.00
2018-05-03T04:01:13.620Z,10.90
2018-05-03T04:03:41.167Z,10.90
2018-05-03T04:06:09.466Z,10.80
2018-05-03T04:08:36.991Z,10.80
2018-05-03T04:11:04.541Z,10.70
2018-05-03T04:13:32.078Z,10.60
2018-05-03T04:16:00.380Z,10.50
2018-05-03T04:18:40.261Z,10.50
2018-05-03T04:21:19.649Z,10.40
2018-05-03T04:24:12.588Z,10.20
2018-05-03T04:26:40.883Z,10.10
2018-05-03T04:29:08.409Z,10.10
2018-05-03T04:31:35.944Z,10.10
2018-05-03T04:34:03.458Z,10.00
2018-05-03T04:36:31.803Z,10.00
2018-05-03T04:38:59.369Z,10.00
2018-05-03T04:41:26.967Z,10.00
2018-05-03T04:43:54.470Z,9.90
2018-05-03T04:46:22.043Z,9.90
2018-05-03T04:48:49.612Z,9.90
2018-05-03T04:51:17.226Z,9.90
2018-05-03T04:53:44.832Z,9.90
2018-05-03T04:56:13.118Z,10.00
2018-05-03T04:58:41.419Z,10.00
2018-05-03T05:01:08.934Z,10.00
2018-05-03T05:03:36.476Z,10.00
2018-05-03T05:06:03.984Z,10.00
2018-05-03T05:08:31.534Z,10.00
2018-05-03T05:10:59.817Z,10.00
2018-05-03T05:13:27.332Z,10.00
2018-05-03T05:15:54.899Z,10.00
2018-05-03T05:18:22.464Z,10.00
2018-05-03T05:20:49.977Z,10.00
2018-05-03T05:23:17.515Z,10.10
2018-05-03T05:25:45.106Z,10.10
2018-05-03T05:28:12.648Z,10.10
2018-05-03T05:30:40.279Z,10.20
2018-05-03T05:33:07.750Z,10.20
2018-05-03T05:35:36.103Z,10.30
2018-05-03T05:38:03.652Z,10.30
2018-05-03T05:40:31.250Z,10.40
2018-05-03T05:42:58.811Z,10.40
2018-05-03T05:45:26.347Z,10.50
2018-05-03T05:47:54.632Z,10.60
2018-05-03T05:50:23.199Z,10.80
2018-05-03T05:52:51.672Z,11.00
2018-05-03T05:55:19.205Z,11.00
2018-05-03T05:57:46.789Z,11.20
2018-05-03T06:00:14.329Z,11.30
2018-05-03T06:02:42.333Z,11.40
2018-05-03T06:05:10.840Z,11.80
2018-05-03T06:07:38.961Z,11.80
2018-05-03T06:10:06.499Z,11.80
2018-05-03T06:12:34.014Z,11.80
2018-05-03T06:15:02.291Z,11.80
2018-05-03T06:17:30.584Z,11.70
2018-05-03T06:19:58.816Z,11.60
2018-05-03T06:22:26.378Z,11.70
2018-05-03T06:24:53.928Z,11.90
2018-05-03T06:27:21.499Z,11.90
2018-05-03T06:29:49.036Z,11.90
2018-05-03T06:32:16.553Z,11.90
2018-05-03T06:34:44.082Z,11.90
2018-05-03T06:37:13.455Z,11.90
2018-05-03T06:39:43.805Z,11.90
2018-05-03T06:42:11.385Z,12.10
2018-05-03T06:44:40.304Z,13.00
2018-05-03T06:47:08.400Z,13.00
2018-05-03T06:49:35.976Z,13.30
2018-05-03T06:52:03.557Z,13.40
2018-05-03T06:54:31.845Z,13.70
2018-05-03T06:57:00.608Z,13.80
2018-05-03T06:59:28.163Z,13.80
2018-05-03T07:01:55.666Z,13.90
2018-05-03T07:04:23.304Z,14.00
2018-05-03T07:06:50.652Z,13.90
2018-05-03T07:09:18.997Z,14.20
2018-05-03T07:11:46.605Z,14.20
2018-05-03T07:14:15.625Z,13.90
2018-05-03T07:16:43.127Z,13.90
2018-05-03T07:19:10.642Z,14.20
2018-05-03T07:21:38.304Z,14.20
2018-05-03T07:24:05.817Z,14.00
2018-05-03T07:26:34.151Z,13.70
2018-05-03T07:29:01.697Z,13.70
2018-05-03T07:31:29.230Z,13.50
2018-05-03T07:33:56.763Z,13.40
2018-05-03T07:36:24.291Z,13.50
2018-05-03T07:38:51.947Z,13.50
2018-05-03T07:41:19.721Z,13.50
2018-05-03T07:43:47.353Z,13.60
2018-05-03T07:46:14.896Z,13.50
2018-05-03T07:48:42.473Z,13.50
2018-05-03T07:51:12.971Z,13.50
2018-05-03T07:53:40.439Z,13.60
2018-05-03T07:56:08.035Z,13.60
2018-05-03T07:58:35.620Z,13.80
2018-05-03T08:01:03.958Z,13.80
2018-05-03T08:03:31.638Z,13.70
2018-05-03T08:05:59.155Z,13.70
2018-05-03T08:08:26.733Z,13.70
2018-05-03T08:10:55.230Z,13.70
2018-05-03T08:13:22.834Z,13.80
2018-05-03T08:15:51.164Z,13.70
2018-05-03T08:18:19.417Z,13.70
2018-05-03T08:20:46.976Z,13.60
2018-05-03T08:23:14.615Z,13.60
2018-05-03T08:25:42.921Z,13.70
2018-05-03T08:28:19.168Z,13.70
2018-05-03T08:30:46.867Z,13.70
2018-05-03T08:33:16.989Z,13.80
2018-05-03T08:35:46.684Z,13.90
2018-05-03T08:38:15.142Z,13.90
2018-05-03T08:40:43.383Z,13.90
2018-05-03T08:43:10.927Z,13.90
2018-05-03T08:45:38.525Z,13.90
2018-05-03T08:48:06.825Z,14.00
2018-05-03T08:50:34.370Z,14.00
2018-05-03T08:53:03.773Z,14.00
2018-05-03T08:55:33.822Z,14.20
2018-05-03T08:58:01.390Z,14.20
2018-05-03T09:00:28.921Z,14.50
2018-05-03T09:02:57.021Z,14.60
2018-05-03T09:05:28.270Z,14.60
2018-05-03T09:07:55.873Z,14.60
2018-05-03T09:10:23.504Z,14.80
2018-05-03T09:12:52.017Z,15.00
2018-05-03T09:15:20.321Z,15.10
2018-05-03T09:17:48.733Z,15.10
2018-05-03T09:20:17.027Z,15.20
2018-05-03T09:22:45.084Z,15.30
2018-05-03T09:25:13.640Z,15.20
2018-05-03T09:27:41.911Z,15.10
2018-05-03T09:30:10.462Z,15.20
2018-05-03T09:32:38.768Z,15.50
2018-05-03T09:35:07.260Z,15.50
2018-05-03T09:37:35.596Z,15.70
2018-05-03T09:40:04.332Z,16.00
2018-05-03T09:42:32.332Z,16.00
2018-05-03T09:45:00.383Z,16.20
2018-05-03T09:47:28.175Z,16.10
2018-05-03T09:49:56.482Z,16.00
2018-05-03T09:52:24.324Z,16.10
2018-05-03T09:54:52.237Z,16.20
2018-05-03T09:57:20.538Z,16.20
2018-05-03T09:59:48.149Z,16.20
2018-05-03T10:02:16.467Z,16.00
2018-05-03T10:04:44.882Z,15.80
2018-05-03T10:07:13.386Z,15.80
2018-05-03T10:09:41.097Z,15.80
2018-05-03T10:12:09.442Z,15.80
2018-05-03T10:14:37.021Z,15.90
2018-05-03T10:17:05.771Z,16.20
2018-05-03T10:19:34.788Z,16.20
2018-05-03T10:22:03.312Z,16.50
2018-05-03T10:24:31.781Z,16.80
2018-05-03T10:26:59.480Z,16.60
2018-05-03T10:29:28.510Z,15.90
2018-05-03T10:31:56.669Z,15.90
2018-05-03T10:34:24.531Z,15.50
2018-05-03T10:36:52.890Z,15.50
2018-05-03T10:39:21.706Z,16.00
2018-05-03T10:41:49.576Z,15.90
2018-05-03T10:44:17.996Z,16.20
2018-05-03T10:46:46.450Z,16.40
2018-05-03T10:49:15.207Z,16.30
2018-05-03T10:51:44.846Z,16.10
2018-05-03T10:54:12.522Z,16.10
2018-05-03T10:56:40.095Z,16.20
2018-05-03T10:59:08.911Z,16.40
2018-05-03T11:01:37.217Z,16.80
2018-05-03T11:04:04.789Z,16.70
2018-05-03T11:06:32.722Z,16.80
2018-05-03T11:09:00.307Z,16.90
2018-05-03T11:11:27.840Z,17.20
2018-05-03T11:13:56.231Z,17.20
2018-05-03T11:16:24.630Z,17.20
2018-05-03T11:18:52.672Z,17.40
2018-05-03T11:21:23.956Z,17.30
2018-05-03T11:23:53.090Z,16.80
2018-05-03T11:26:20.718Z,16.80
2018-05-03T11:28:49.951Z,17.00
2018-05-03T11:31:20.655Z,16.90
2018-05-03T11:33:54.956Z,16.80
2018-05-03T11:36:23.638Z,16.80
2018-05-03T11:38:52.911Z,17.10
2018-05-03T11:41:21.238Z,17.40
2018-05-03T11:43:51.250Z,17.70
2018-05-03T11:46:26.076Z,17.90
2018-05-03T11:48:55.554Z,17.90
2018-05-03T11:51:23.272Z,17.70
2018-05-03T11:53:55.328Z,17.90
2018-05-03T11:56:23.959Z,18.10
2018-05-03T11:58:53.944Z,18.00
2018-05-03T12:01:23.410Z,17.70
2018-05-03T12:03:50.943Z,17.70
2018-05-03T12:06:18.482Z,17.20
2018-05-03T12:08:46.790Z,16.60
2018-05-03T12:11:14.288Z,16.60
2018-05-03T12:13:41.836Z,16.60
2018-05-03T12:16:09.416Z,16.60
2018-05-03T12:18:38.470Z,16.60
2018-05-03T12:21:05.990Z,16.60
2018-05-03T12:23:33.556Z,16.70
2018-05-03T12:26:01.085Z,16.70
2018-05-03T12:28:28.978Z,16.70
2018-05-03T12:30:57.207Z,16.80
2018-05-03T12:33:24.729Z,16.80
2018-05-03T12:35:55.223Z,16.90
2018-05-03T12:38:23.492Z,17.30
2018-05-03T12:40:51.839Z,17.10
2018-05-03T12:43:19.362Z,17.10
2018-05-03T12:45:46.896Z,17.00
2018-05-03T12:48:15.228Z,17.40
2018-05-03T12:50:42.823Z,17.40
2018-05-03T12:53:10.374Z,17.40
2018-05-03T12:55:38.664Z,17.50
2018-05-03T12:58:06.960Z,18.10
2018-05-03T13:00:34.805Z,18.10
2018-05-03T13:03:03.695Z,18.30
2018-05-03T13:05:31.243Z,18.30
2018-05-03T13:07:58.786Z,18.30
2018-05-03T13:10:27.101Z,18.10
2018-05-03T13:12:55.480Z,17.90
2018-05-03T13:15:24.547Z,17.90
2018-05-03T13:17:52.443Z,17.90
2018-05-03T13:20:20.717Z,18.50
2018-05-03T13:22:49.005Z,18.80
2018-05-03T13:25:16.540Z,18.70
2018-05-03T13:27:44.836Z,18.80
2018-05-03T13:30:12.363Z,18.80
2018-05-03T13:32:40.065Z,18.80
2018-05-03T13:35:07.598Z,18.90
2018-05-03T13:37:38.493Z,19.00
2018-05-03T13:40:06.946Z,18.90
2018-05-03T13:42:34.496Z,18.80
2018-05-03T13:45:02.070Z,18.80
2018-05-03T13:47:29.584Z,18.70
2018-05-03T13:49:57.117Z,18.70
2018-05-03T13:52:24.726Z,18.60
2018-05-03T13:54:53.023Z,18.50
2018-05-03T13:57:20.549Z,18.50
2018-05-03T13:59:48.888Z,19.00
2018-05-03T14:02:16.427Z,18.90
2018-05-03T14:04:43.967Z,18.70
2018-05-03T14:07:11.558Z,18.40
2018-05-03T14:09:39.817Z,18.00
2018-05-03T14:12:07.349Z,18.00
2018-05-03T14:14:35.658Z,18.20
2018-05-03T14:17:03.189Z,18.10
2018-05-03T14:19:30.744Z,18.30
2018-05-03T14:21:59.058Z,18.50
2018-05-03T14:24:26.577Z,18.50
2018-05-03T14:26:54.923Z,19.20
2018-05-03T14:29:22.477Z,19.10
2018-05-03T14:31:50.052Z,19.40
2018-05-03T14:34:19.359Z,19.20
2018-05-03T14:36:47.665Z,19.00
2018-05-03T14:39:15.206Z,19.00
2018-05-03T14:41:43.517Z,18.80
2018-05-03T14:44:11.055Z,18.80
2018-05-03T14:46:38.597Z,18.90
2018-05-03T14:49:06.885Z,19.40
2018-05-03T14:51:34.417Z,19.40
2018-05-03T14:54:01.960Z,19.40
2018-05-03T14:56:29.498Z,19.30
2018-05-03T14:58:57.063Z,19.00
2018-05-03T15:01:24.608Z,18.80
2018-05-03T15:03:52.213Z,18.50
2018-05-03T15:06:19.774Z,18.30
2018-05-03T15:08:47.275Z,18.20
2018-05-03T15:11:14.813Z,18.30
2018-05-03T15:13:43.106Z,18.70
2018-05-03T15:16:10.759Z,18.70
2018-05-03T15:18:39.035Z,19.00
2018-05-03T15:21:07.533Z,19.00
2018-05-03T15:23:35.896Z,19.20
2018-05-03T15:26:03.444Z,19.20
2018-05-03T15:28:31.726Z,19.50
2018-05-03T15:30:59.849Z,19.50
2018-05-03T15:33:27.391Z,19.40
2018-05-03T15:35:54.966Z,19.40
2018-05-03T15:38:22.513Z,19.40
2018-05-03T15:40:50.079Z,19.40
2018-05-03T15:43:17.619Z,19.50
2018-05-03T15:45:45.178Z,19.70
2018-05-03T15:48:12.729Z,20.00
2018-05-03T15:50:40.283Z,20.00
2018-05-03T15:53:07.789Z,20.20
2018-05-03T15:55:35.322Z,19.80
2018-05-03T15:58:02.870Z,19.70
2018-05-03T16:00:30.391Z,19.90
2018-05-03T16:02:58.709Z,20.20
2018-05-03T16:05:27.009Z,20.20
2018-05-03T16:07:54.567Z,20.10
2018-05-03T16:10:22.079Z,19.90
2018-05-03T16:12:49.607Z,19.70
2018-05-03T16:15:17.149Z,19.50
2018-05-03T16:17:44.713Z,19.40
2018-05-03T16:20:12.244Z,19.40
2018-05-03T16:22:39.762Z,19.40
2018-05-03T16:25:08.071Z,19.30
2018-05-03T16:27:35.593Z,19.20
2018-05-03T16:30:03.952Z,19.40
2018-05-03T16:32:31.469Z,19.30
2018-05-03T16:34:59.043Z,19.30
2018-05-03T16:37:26.617Z,19.30
2018-05-03T16:39:54.194Z,19.50
2018-05-03T16:42:21.885Z,19.70
2018-05-03T16:44:49.457Z,19.70
2018-05-03T16:47:18.002Z,19.70
2018-05-03T16:49:46.282Z,19.70
2018-05-03T16:52:14.588Z,19.80
2018-05-03T16:54:42.135Z,19.80
2018-05-03T16:57:10.439Z,19.70
2018-05-03T16:59:38.551Z,19.70
2018-05-03T17:02:06.075Z,19.40
2018-05-03T17:04:33.587Z,19.20
2018-05-03T17:07:01.862Z,19.00
2018-05-03T17:09:30.171Z,19.10
2018-05-03T17:11:57.705Z,19.00
2018-05-03T17:14:26.007Z,19.30
2018-05-03T17:16:53.525Z,19.30
2018-05-03T17:19:21.055Z,19.50
2018-05-03T17:21:48.593Z,19.90
2018-05-03T17:24:16.139Z,19.90
2018-05-03T17:26:43.674Z,19.80
2018-05-03T17:29:12.749Z,21.00
2018-05-03T17:31:40.265Z,21.00
2018-05-03T17:34:07.779Z,21.60
2018-05-03T17:36:36.072Z,22.80
2018-05-03T17:39:04.422Z,23.20
2018-05-03T17:41:32.764Z,23.40
2018-05-03T17:44:00.346Z,23.40
2018-05-03T17:46:27.964Z,23.60
2018-05-03T17:48:55.511Z,23.70
2018-05-03T17:51:23.145Z,23.80
2018-05-03T17:53:50.577Z,22.90
2018-05-03T17:56:18.105Z,21.40
2018-05-03T17:58:45.668Z,19.90
2018-05-03T18:01:13.217Z,18.80
2018-05-03T18:03:40.742Z,18.20
2018-05-03T18:06:09.025Z,17.00
2018-05-03T18:08:37.329Z,16.70
2018-05-03T18:11:05.824Z,16.60
2018-05-03T18:13:33.436Z,16.40
2018-05-03T18:16:01.717Z,15.80
2018-05-03T18:18:30.047Z,15.60
2018-05-03T18:20:57.558Z,15.60
2018-05-03T18:23:25.858Z,15.30
2018-05-03T18:25:53.392Z,15.30
2018-05-03T18:28:21.699Z,15.00
2018-05-03T18:30:49.242Z,15.00
2018-05-03T18:33:16.800Z,14.80
2018-05-03T18:35:44.313Z,14.70
2018-05-03T18:38:11.859Z,14.60
2018-05-03T18:40:39.380Z,14.40
2018-05-03T18:43:06.897Z,14.30
2018-05-03T18:45:34.435Z,14.10
2018-05-03T18:48:01.956Z,14.00
2018-05-03T18:50:29.521Z,13.80
2018-05-03T18:52:57.071Z,13.70
2018-05-03T18:55:24.693Z,13.60
2018-05-03T18:57:52.280Z,13.40
2018-05-03T19:00:21.379Z,13.20
2018-05-03T19:02:49.694Z,13.00
2018-05-03T19:05:17.226Z,13.00
2018-05-03T19:07:44.770Z,12.90
2018-05-03T19:10:13.189Z,12.70
2018-05-03T19:12:40.764Z,12.60
2018-05-03T19:15:08.332Z,12.60
2018-05-03T19:17:36.768Z,12.40
2018-05-03T19:20:04.306Z,12.30
2018-05-03T19:22:32.603Z,12.20
2018-05-03T19:25:00.111Z,12.20
2018-05-03T19:27:27.715Z,12.10
2018-05-03T19:29:55.256Z,12.00
2018-05-03T19:32:23.551Z,11.90
2018-05-03T19:34:51.080Z,11.90
2018-05-03T19:37:19.393Z,11.80
2018-05-03T19:39:46.952Z,11.80
2018-05-03T19:42:14.487Z,11.70
2018-05-03T19:44:42.790Z,11.50
2018-05-03T19:47:10.321Z,11.50
2018-05-03T19:49:38.637Z,11.40
2018-05-03T19:52:06.910Z,11.30
2018-05-03T19:54:34.444Z,11.30
2018-05-03T19:57:01.989Z,11.20
2018-05-03T19:59:30.273Z,11.10
2018-05-03T20:01:58.593Z,11.10
2018-05-03T20:04:26.147Z,11.10
2018-05-03T20:06:53.714Z,11.00
2018-05-03T20:09:21.225Z,11.00
2018-05-03T20:11:50.250Z,11.00
2018-05-03T20:14:17.774Z,11.00
2018-05-03T20:16:46.791Z,11.00
2018-05-03T20:19:14.357Z,10.90
2018-05-03T20:21:41.888Z,10.90
2018-05-03T20:24:10.189Z,10.70
2018-05-03T20:26:37.734Z,10.70
2018-05-03T20:29:05.265Z,10.70
2018-05-03T20:31:32.798Z,10.70
2018-05-03T20:34:00.320Z,10.60
2018-05-03T20:36:27.865Z,10.60
2018-05-03T20:38:55.399Z,10.60
2018-05-03T20:41:22.925Z,10.60
2018-05-03T20:43:50.463Z,10.50
2018-05-03T20:46:19.326Z,10.40
2018-05-03T20:48:46.896Z,10.40
2018-05-03T20:51:14.434Z,10.30
2018-05-03T20:53:42.738Z,10.20
2018-05-03T20:56:10.284Z,10.20
2018-05-03T20:58:37.864Z,10.10
2018-05-03T21:01:05.384Z,10.10
2018-05-03T21:03:33.681Z,10.00
2018-05-03T21:06:02.112Z,10.00
2018-05-03T21:08:29.664Z,9.90
2018-05-03T21:10:57.247Z,9.80
2018-05-03T21:13:24.790Z,9.80
2018-05-03T21:15:52.341Z,9.80
2018-05-03T21:18:19.874Z,9.70
2018-05-03T21:20:47.407Z,9.70
2018-05-03T21:23:15.689Z,9.60
2018-05-03T21:25:43.231Z,9.60
2018-05-03T21:28:11.509Z,9.50
2018-05-03T21:30:39.778Z,9.40
2018-05-03T21:33:08.077Z,9.40
2018-05-03T21:35:35.578Z,9.40
2018-05-03T21:38:03.127Z,9.30
2018-05-03T21:40:30.673Z,9.30
2018-05-03T21:42:58.233Z,9.30
2018-05-03T21:45:25.752Z,9.20
2018-05-03T21:47:54.039Z,9.10
2018-05-03T21:50:22.409Z,9.00
2018-05-03T21:52:50.706Z,9.00
2018-05-03T21:55:18.888Z,9.00
2018-05-03T21:57:46.424Z,9.00
2018-05-03T22:00:14.713Z,8.90
2018-05-03T22:02:42.267Z,8.90
2018-05-03T22:05:09.792Z,8.90
2018-05-03T22:07:37.348Z,8.90
2018-05-03T22:10:04.850Z,8.80
2018-05-03T22:12:32.367Z,8.80
2018-05-03T22:14:59.876Z,8.70
2018-05-03T22:17:27.372Z,8.70
2018-05-03T22:19:54.910Z,8.60
2018-05-03T22:22:22.464Z,8.60
2018-05-03T22:24:50.688Z,8.50
2018-05-03T22:27:18.272Z,8.50
2018-05-03T22:29:45.778Z,8.50
2018-05-03T22:32:13.347Z,8.50
2018-05-03T22:34:40.857Z,8.40
2018-05-03T22:37:09.109Z,8.40
2018-05-03T22:39:37.391Z,8.30
2018-05-03T22:42:05.661Z,8.20
2018-05-03T22:44:33.955Z,8.20
2018-05-03T22:47:01.497Z,8.20
2018-05-03T22:49:29.791Z,8.10
2018-05-03T22:51:57.307Z,8.10
2018-05-03T22:54:24.809Z,8.10
2018-05-03T22:56:52.314Z,8.00
2018-05-03T22:59:19.823Z,7.90
2018-05-03T23:01:47.328Z,8.00
2018-05-03T23:04:15.750Z,7.90
2018-05-03T23:06:43.268Z,7.90
2018-05-03T23:09:12.241Z,7.90
2018-05-03T23:11:39.764Z,7.80
2018-05-03T23:14:07.274Z,7.80
2018-05-03T23:16:34.785Z,7.70
2018-05-03T23:19:02.307Z,7.60
2018-05-03T23:21:29.873Z,7.60
2018-05-03T23:23:58.165Z,7.60
2018-05-03T23:26:26.523Z,7.60
2018-05-03T23:28:54.026Z,7.60
2018-05-03T23:31:22.200Z,7.60
2018-05-03T23:33:49.708Z,7.60
2018-05-03T23:36:17.315Z,7.50
2018-05-03T23:38:44.811Z,7.60
2018-05-03T23:41:12.382Z,7.60
2018-05-03T23:43:39.906Z,7.50
2018-05-03T23:46:07.433Z,7.60
2018-05-03T23:48:35.754Z,7.50
2018-05-03T23:51:03.282Z,7.50
2018-05-03T23:53:30.780Z,7.50
2018-05-03T23:55:58.281Z,7.40
2018-05-03T23:58:26.540Z,7.30
